sensor_id;sensor_type;location;lat;lon;timestamp;temperature;humidity
22734;DHT22;11534;51.994;5.692;2023-04-24T00:01:24;10.20;99.90
22734;DHT22;11534;51.994;5.692;2023-04-24T00:03:49;10.30;99.90
22734;DHT22;11534;51.994;5.692;2023-04-24T00:06:15;10.30;99.90
22734;DHT22;11534;51.994;5.692;2023-04-24T00:08:42;10.30;99.90
22734;DHT22;11534;51.994;5.692;2023-04-24T00:11:08;10.30;99.90
22734;DHT22;11534;51.994;5.692;2023-04-24T00:13:34;10.20;99.90
22734;DHT22;11534;51.994;5.692;2023-04-24T00:16:00;10.20;99.90
22734;DHT22;11534;51.994;5.692;2023-04-24T00:18:26;10.20;99.90
22734;DHT22;11534;51.994;5.692;2023-04-24T00:20:52;10.20;99.90
22734;DHT22;11534;51.994;5.692;2023-04-24T00:23:17;10.10;99.90
22734;DHT22;11534;51.994;5.692;2023-04-24T00:25:43;10.20;99.90
22734;DHT22;11534;51.994;5.692;2023-04-24T00:28:09;10.10;99.90
22734;DHT22;11534;51.994;5.692;2023-04-24T00:30:34;10.10;99.90
22734;DHT22;11534;51.994;5.692;2023-04-24T00:33:00;10.20;99.90
22734;DHT22;11534;51.994;5.692;2023-04-24T00:35:26;10.20;99.90
22734;DHT22;11534;51.994;5.692;2023-04-24T00:37:51;10.10;99.90
22734;DHT22;11534;51.994;5.692;2023-04-24T00:40:17;10.10;99.90
22734;DHT22;11534;51.994;5.692;2023-04-24T00:42:43;10.10;99.90
22734;DHT22;11534;51.994;5.692;2023-04-24T00:45:09;10.10;99.90
22734;DHT22;11534;51.994;5.692;2023-04-24T00:47:35;10.00;99.90
22734;DHT22;11534;51.994;5.692;2023-04-24T00:50:05;10.00;99.90
22734;DHT22;11534;51.994;5.692;2023-04-24T00:52:31;10.00;99.90
22734;DHT22;11534;51.994;5.692;2023-04-24T00:54:58;10.00;99.90
22734;DHT22;11534;51.994;5.692;2023-04-24T00:57:24;10.00;99.90
22734;DHT22;11534;51.994;5.692;2023-04-24T00:59:51;10.00;99.90
22734;DHT22;11534;51.994;5.692;2023-04-24T01:02:17;10.00;99.90
22734;DHT22;11534;51.994;5.692;2023-04-24T01:04:44;9.90;99.90
22734;DHT22;11534;51.994;5.692;2023-04-24T01:07:10;9.90;99.90
22734;DHT22;11534;51.994;5.692;2023-04-24T01:09:46;9.90;99.90
22734;DHT22;11534;51.994;5.692;2023-04-24T01:12:15;9.90;99.90
22734;DHT22;11534;51.994;5.692;2023-04-24T01:14:40;9.80;99.90
22734;DHT22;11534;51.994;5.692;2023-04-24T01:17:06;9.80;99.90
22734;DHT22;11534;51.994;5.692;2023-04-24T01:19:32;9.80;99.90
22734;DHT22;11534;51.994;5.692;2023-04-24T01:21:58;9.70;99.90
22734;DHT22;11534;51.994;5.692;2023-04-24T01:24:27;9.80;99.90
22734;DHT22;11534;51.994;5.692;2023-04-24T01:26:53;9.70;99.90
22734;DHT22;11534;51.994;5.692;2023-04-24T01:29:19;9.70;99.90
22734;DHT22;11534;51.994;5.692;2023-04-24T01:31:45;9.70;99.90
22734;DHT22;11534;51.994;5.692;2023-04-24T01:34:11;9.70;99.90
22734;DHT22;11534;51.994;5.692;2023-04-24T01:36:37;9.70;99.90
22734;DHT22;11534;51.994;5.692;2023-04-24T01:39:04;9.80;99.90
22734;DHT22;11534;51.994;5.692;2023-04-24T01:41:30;9.80;99.90
22734;DHT22;11534;51.994;5.692;2023-04-24T01:43:57;9.80;99.90
22734;DHT22;11534;51.994;5.692;2023-04-24T01:46:24;9.80;99.90
22734;DHT22;11534;51.994;5.692;2023-04-24T01:48:51;9.80;99.90
22734;DHT22;11534;51.994;5.692;2023-04-24T01:51:17;9.80;99.90
22734;DHT22;11534;51.994;5.692;2023-04-24T01:53:43;9.90;99.90
22734;DHT22;11534;51.994;5.692;2023-04-24T01:56:09;9.90;99.90
22734;DHT22;11534;51.994;5.692;2023-04-24T01:58:35;9.90;99.90
22734;DHT22;11534;51.994;5.692;2023-04-24T02:01:01;9.80;99.90
22734;DHT22;11534;51.994;5.692;2023-04-24T02:03:27;9.80;99.90
22734;DHT22;11534;51.994;5.692;2023-04-24T02:05:52;9.90;99.90
22734;DHT22;11534;51.994;5.692;2023-04-24T02:08:18;9.90;99.90
22734;DHT22;11534;51.994;5.692;2023-04-24T02:10:44;10.00;99.90
22734;DHT22;11534;51.994;5.692;2023-04-24T02:13:09;10.00;99.90
22734;DHT22;11534;51.994;5.692;2023-04-24T02:15:35;10.00;99.90
22734;DHT22;11534;51.994;5.692;2023-04-24T02:18:01;10.00;99.90
22734;DHT22;11534;51.994;5.692;2023-04-24T02:20:27;10.00;99.90
22734;DHT22;11534;51.994;5.692;2023-04-24T02:22:53;10.10;99.90
22734;DHT22;11534;51.994;5.692;2023-04-24T02:25:19;10.10;99.90
22734;DHT22;11534;51.994;5.692;2023-04-24T02:27:44;10.10;99.90
22734;DHT22;11534;51.994;5.692;2023-04-24T02:30:10;10.00;99.90
22734;DHT22;11534;51.994;5.692;2023-04-24T02:32:36;10.00;99.90
22734;DHT22;11534;51.994;5.692;2023-04-24T02:35:01;10.00;99.90
22734;DHT22;11534;51.994;5.692;2023-04-24T02:37:27;10.00;99.90
22734;DHT22;11534;51.994;5.692;2023-04-24T02:39:53;10.00;99.90
22734;DHT22;11534;51.994;5.692;2023-04-24T02:42:18;10.00;99.90
22734;DHT22;11534;51.994;5.692;2023-04-24T02:44:44;10.00;99.90
22734;DHT22;11534;51.994;5.692;2023-04-24T02:47:09;9.90;99.90
22734;DHT22;11534;51.994;5.692;2023-04-24T02:49:35;9.90;99.90
22734;DHT22;11534;51.994;5.692;2023-04-24T02:52:01;9.90;99.90
22734;DHT22;11534;51.994;5.692;2023-04-24T02:54:26;9.90;99.90
22734;DHT22;11534;51.994;5.692;2023-04-24T02:56:52;9.90;99.90
22734;DHT22;11534;51.994;5.692;2023-04-24T02:59:17;9.90;99.90
22734;DHT22;11534;51.994;5.692;2023-04-24T03:01:43;9.90;99.90
22734;DHT22;11534;51.994;5.692;2023-04-24T03:04:09;9.90;99.90
22734;DHT22;11534;51.994;5.692;2023-04-24T03:06:35;9.90;99.90
22734;DHT22;11534;51.994;5.692;2023-04-24T03:09:01;9.90;99.90
22734;DHT22;11534;51.994;5.692;2023-04-24T03:11:28;9.80;99.90
22734;DHT22;11534;51.994;5.692;2023-04-24T03:13:54;9.90;99.90
22734;DHT22;11534;51.994;5.692;2023-04-24T03:16:20;9.90;99.90
22734;DHT22;11534;51.994;5.692;2023-04-24T03:18:45;9.90;99.90
22734;DHT22;11534;51.994;5.692;2023-04-24T03:21:11;9.90;99.90
22734;DHT22;11534;51.994;5.692;2023-04-24T03:23:37;9.90;99.90
22734;DHT22;11534;51.994;5.692;2023-04-24T03:26:03;9.90;99.90
22734;DHT22;11534;51.994;5.692;2023-04-24T03:28:28;9.90;99.90
22734;DHT22;11534;51.994;5.692;2023-04-24T03:30:54;9.90;99.90
22734;DHT22;11534;51.994;5.692;2023-04-24T03:33:19;9.90;99.90
22734;DHT22;11534;51.994;5.692;2023-04-24T03:35:45;9.90;99.90
22734;DHT22;11534;51.994;5.692;2023-04-24T03:38:11;10.00;99.90
22734;DHT22;11534;51.994;5.692;2023-04-24T03:40:36;9.90;99.90
22734;DHT22;11534;51.994;5.692;2023-04-24T03:43:02;9.90;99.90
22734;DHT22;11534;51.994;5.692;2023-04-24T03:45:27;9.90;99.90
22734;DHT22;11534;51.994;5.692;2023-04-24T03:47:53;9.90;99.90
22734;DHT22;11534;51.994;5.692;2023-04-24T03:50:19;9.90;99.90
22734;DHT22;11534;51.994;5.692;2023-04-24T03:52:44;9.80;99.90
22734;DHT22;11534;51.994;5.692;2023-04-24T03:55:10;9.80;99.90
22734;DHT22;11534;51.994;5.692;2023-04-24T03:57:39;9.80;99.90
22734;DHT22;11534;51.994;5.692;2023-04-24T04:00:05;9.80;99.90
22734;DHT22;11534;51.994;5.692;2023-04-24T04:02:31;9.80;99.90
22734;DHT22;11534;51.994;5.692;2023-04-24T04:04:57;9.70;99.90
22734;DHT22;11534;51.994;5.692;2023-04-24T04:07:22;9.70;99.90
22734;DHT22;11534;51.994;5.692;2023-04-24T04:09:48;9.70;99.90
22734;DHT22;11534;51.994;5.692;2023-04-24T04:12:13;9.70;99.90
22734;DHT22;11534;51.994;5.692;2023-04-24T04:14:39;9.70;99.90
22734;DHT22;11534;51.994;5.692;2023-04-24T04:17:05;9.70;99.90
22734;DHT22;11534;51.994;5.692;2023-04-24T04:19:31;9.60;99.90
22734;DHT22;11534;51.994;5.692;2023-04-24T04:21:56;9.60;99.90
22734;DHT22;11534;51.994;5.692;2023-04-24T04:24:22;9.60;99.90
22734;DHT22;11534;51.994;5.692;2023-04-24T04:26:50;9.50;99.90
22734;DHT22;11534;51.994;5.692;2023-04-24T04:29:17;9.50;99.90
22734;DHT22;11534;51.994;5.692;2023-04-24T04:31:44;9.50;99.90
22734;DHT22;11534;51.994;5.692;2023-04-24T04:34:10;9.50;99.90
22734;DHT22;11534;51.994;5.692;2023-04-24T04:36:36;9.50;99.90
22734;DHT22;11534;51.994;5.692;2023-04-24T04:39:05;9.40;99.90
22734;DHT22;11534;51.994;5.692;2023-04-24T04:41:31;9.40;99.90
22734;DHT22;11534;51.994;5.692;2023-04-24T04:43:57;9.40;99.90
22734;DHT22;11534;51.994;5.692;2023-04-24T04:46:25;9.40;99.90
22734;DHT22;11534;51.994;5.692;2023-04-24T04:48:52;9.40;99.90
22734;DHT22;11534;51.994;5.692;2023-04-24T04:51:18;9.40;99.90
22734;DHT22;11534;51.994;5.692;2023-04-24T04:53:43;9.40;99.90
22734;DHT22;11534;51.994;5.692;2023-04-24T04:56:10;9.40;99.90
22734;DHT22;11534;51.994;5.692;2023-04-24T04:58:35;9.40;99.90
22734;DHT22;11534;51.994;5.692;2023-04-24T05:01:01;9.40;99.90
22734;DHT22;11534;51.994;5.692;2023-04-24T05:03:27;9.40;99.90
22734;DHT22;11534;51.994;5.692;2023-04-24T05:05:53;9.50;99.90
22734;DHT22;11534;51.994;5.692;2023-04-24T05:08:19;9.50;99.90
22734;DHT22;11534;51.994;5.692;2023-04-24T05:10:45;9.50;99.90
22734;DHT22;11534;51.994;5.692;2023-04-24T05:13:10;9.60;99.90
22734;DHT22;11534;51.994;5.692;2023-04-24T05:15:36;9.60;99.90
22734;DHT22;11534;51.994;5.692;2023-04-24T05:18:02;9.60;99.90
22734;DHT22;11534;51.994;5.692;2023-04-24T05:20:28;9.60;99.90
22734;DHT22;11534;51.994;5.692;2023-04-24T05:22:55;9.70;99.90
22734;DHT22;11534;51.994;5.692;2023-04-24T05:25:21;9.70;99.90
22734;DHT22;11534;51.994;5.692;2023-04-24T05:27:47;9.70;99.90
22734;DHT22;11534;51.994;5.692;2023-04-24T05:30:13;9.70;99.90
22734;DHT22;11534;51.994;5.692;2023-04-24T05:32:38;9.70;99.90
22734;DHT22;11534;51.994;5.692;2023-04-24T05:35:04;9.80;99.90
22734;DHT22;11534;51.994;5.692;2023-04-24T05:37:30;9.80;99.90
22734;DHT22;11534;51.994;5.692;2023-04-24T05:39:55;9.80;99.90
22734;DHT22;11534;51.994;5.692;2023-04-24T05:42:21;9.80;99.90
22734;DHT22;11534;51.994;5.692;2023-04-24T05:44:47;9.80;99.90
22734;DHT22;11534;51.994;5.692;2023-04-24T05:47:12;9.90;99.90
22734;DHT22;11534;51.994;5.692;2023-04-24T05:49:38;9.90;99.90
22734;DHT22;11534;51.994;5.692;2023-04-24T05:52:04;9.90;99.90
22734;DHT22;11534;51.994;5.692;2023-04-24T05:54:30;9.90;99.90
22734;DHT22;11534;51.994;5.692;2023-04-24T05:56:56;9.90;99.90
22734;DHT22;11534;51.994;5.692;2023-04-24T05:59:22;10.00;99.90
22734;DHT22;11534;51.994;5.692;2023-04-24T06:01:48;10.00;99.90
22734;DHT22;11534;51.994;5.692;2023-04-24T06:04:13;10.00;99.90
22734;DHT22;11534;51.994;5.692;2023-04-24T06:06:40;10.10;99.90
22734;DHT22;11534;51.994;5.692;2023-04-24T06:09:06;10.10;99.90
22734;DHT22;11534;51.994;5.692;2023-04-24T06:11:32;10.10;99.90
22734;DHT22;11534;51.994;5.692;2023-04-24T06:13:58;10.10;99.90
22734;DHT22;11534;51.994;5.692;2023-04-24T06:16:24;10.10;99.90
22734;DHT22;11534;51.994;5.692;2023-04-24T06:18:49;10.20;99.90
22734;DHT22;11534;51.994;5.692;2023-04-24T06:21:16;10.20;99.90
22734;DHT22;11534;51.994;5.692;2023-04-24T06:23:42;10.20;99.90
22734;DHT22;11534;51.994;5.692;2023-04-24T06:26:08;10.20;99.90
22734;DHT22;11534;51.994;5.692;2023-04-24T06:28:33;10.20;99.90
22734;DHT22;11534;51.994;5.692;2023-04-24T06:30:59;10.20;99.90
22734;DHT22;11534;51.994;5.692;2023-04-24T06:33:25;10.20;99.90
22734;DHT22;11534;51.994;5.692;2023-04-24T06:35:51;10.20;99.90
22734;DHT22;11534;51.994;5.692;2023-04-24T06:38:17;10.30;99.90
22734;DHT22;11534;51.994;5.692;2023-04-24T06:40:43;10.30;99.90
22734;DHT22;11534;51.994;5.692;2023-04-24T06:43:08;10.30;99.90
22734;DHT22;11534;51.994;5.692;2023-04-24T06:45:35;10.30;99.90
22734;DHT22;11534;51.994;5.692;2023-04-24T06:48:00;10.30;99.90
22734;DHT22;11534;51.994;5.692;2023-04-24T06:50:26;10.20;99.90
22734;DHT22;11534;51.994;5.692;2023-04-24T06:52:51;10.10;99.90
22734;DHT22;11534;51.994;5.692;2023-04-24T06:55:17;10.10;99.90
22734;DHT22;11534;51.994;5.692;2023-04-24T06:57:44;10.10;99.90
22734;DHT22;11534;51.994;5.692;2023-04-24T07:00:10;10.20;99.90
22734;DHT22;11534;51.994;5.692;2023-04-24T07:02:36;10.10;99.90
22734;DHT22;11534;51.994;5.692;2023-04-24T07:05:03;10.10;99.90
22734;DHT22;11534;51.994;5.692;2023-04-24T07:07:29;10.00;99.90
22734;DHT22;11534;51.994;5.692;2023-04-24T07:09:55;9.90;99.90
22734;DHT22;11534;51.994;5.692;2023-04-24T07:12:21;9.90;99.90
22734;DHT22;11534;51.994;5.692;2023-04-24T07:14:47;9.90;99.90
22734;DHT22;11534;51.994;5.692;2023-04-24T07:17:14;9.80;99.90
22734;DHT22;11534;51.994;5.692;2023-04-24T07:19:40;9.70;99.90
22734;DHT22;11534;51.994;5.692;2023-04-24T07:22:06;9.70;99.90
22734;DHT22;11534;51.994;5.692;2023-04-24T07:24:31;9.70;99.90
22734;DHT22;11534;51.994;5.692;2023-04-24T07:26:58;9.70;99.90
22734;DHT22;11534;51.994;5.692;2023-04-24T07:29:24;9.60;99.90
22734;DHT22;11534;51.994;5.692;2023-04-24T07:31:51;9.60;99.90
22734;DHT22;11534;51.994;5.692;2023-04-24T07:34:16;9.50;99.90
22734;DHT22;11534;51.994;5.692;2023-04-24T07:36:42;9.60;99.90
22734;DHT22;11534;51.994;5.692;2023-04-24T07:39:08;9.50;99.90
22734;DHT22;11534;51.994;5.692;2023-04-24T07:41:34;9.50;99.90
22734;DHT22;11534;51.994;5.692;2023-04-24T07:44:00;9.50;99.90
22734;DHT22;11534;51.994;5.692;2023-04-24T07:46:26;9.50;99.90
22734;DHT22;11534;51.994;5.692;2023-04-24T07:48:55;9.40;99.90
22734;DHT22;11534;51.994;5.692;2023-04-24T07:51:20;9.40;99.90
22734;DHT22;11534;51.994;5.692;2023-04-24T07:53:46;9.30;99.90
22734;DHT22;11534;51.994;5.692;2023-04-24T07:56:12;9.30;99.90
22734;DHT22;11534;51.994;5.692;2023-04-24T07:58:38;9.30;99.90
22734;DHT22;11534;51.994;5.692;2023-04-24T08:01:03;9.30;99.90
22734;DHT22;11534;51.994;5.692;2023-04-24T08:03:29;9.30;99.90
22734;DHT22;11534;51.994;5.692;2023-04-24T08:05:55;9.30;99.90
22734;DHT22;11534;51.994;5.692;2023-04-24T08:08:22;9.30;99.90
22734;DHT22;11534;51.994;5.692;2023-04-24T08:10:48;9.20;99.90
22734;DHT22;11534;51.994;5.692;2023-04-24T08:13:14;9.30;99.90
22734;DHT22;11534;51.994;5.692;2023-04-24T08:15:40;9.20;99.90
22734;DHT22;11534;51.994;5.692;2023-04-24T08:18:06;9.20;99.90
22734;DHT22;11534;51.994;5.692;2023-04-24T08:20:32;9.20;99.90
22734;DHT22;11534;51.994;5.692;2023-04-24T08:22:59;9.20;99.90
22734;DHT22;11534;51.994;5.692;2023-04-24T08:25:24;9.30;99.90
22734;DHT22;11534;51.994;5.692;2023-04-24T08:27:52;9.20;99.90
22734;DHT22;11534;51.994;5.692;2023-04-24T08:30:18;9.20;99.90
22734;DHT22;11534;51.994;5.692;2023-04-24T08:32:43;9.20;99.90
22734;DHT22;11534;51.994;5.692;2023-04-24T08:35:09;9.30;99.90
22734;DHT22;11534;51.994;5.692;2023-04-24T08:37:35;9.30;99.90
22734;DHT22;11534;51.994;5.692;2023-04-24T08:40:03;9.30;99.90
22734;DHT22;11534;51.994;5.692;2023-04-24T08:42:32;9.20;99.90
22734;DHT22;11534;51.994;5.692;2023-04-24T08:44:59;9.30;99.90
22734;DHT22;11534;51.994;5.692;2023-04-24T08:47:25;9.30;99.90
22734;DHT22;11534;51.994;5.692;2023-04-24T08:49:54;9.30;99.90
22734;DHT22;11534;51.994;5.692;2023-04-24T08:52:20;9.40;99.90
22734;DHT22;11534;51.994;5.692;2023-04-24T08:54:47;9.40;99.90
22734;DHT22;11534;51.994;5.692;2023-04-24T08:57:14;9.30;99.90
22734;DHT22;11534;51.994;5.692;2023-04-24T08:59:40;9.30;99.90
22734;DHT22;11534;51.994;5.692;2023-04-24T09:02:10;9.30;99.90
22734;DHT22;11534;51.994;5.692;2023-04-24T09:04:37;9.30;99.90
22734;DHT22;11534;51.994;5.692;2023-04-24T09:07:04;9.30;99.90
22734;DHT22;11534;51.994;5.692;2023-04-24T09:09:33;9.20;99.90
22734;DHT22;11534;51.994;5.692;2023-04-24T09:12:00;9.20;99.90
22734;DHT22;11534;51.994;5.692;2023-04-24T09:14:26;9.30;99.90
22734;DHT22;11534;51.994;5.692;2023-04-24T09:16:53;9.30;99.90
22734;DHT22;11534;51.994;5.692;2023-04-24T09:19:19;9.30;99.90
22734;DHT22;11534;51.994;5.692;2023-04-24T09:21:47;9.40;99.90
22734;DHT22;11534;51.994;5.692;2023-04-24T09:24:17;9.40;99.90
22734;DHT22;11534;51.994;5.692;2023-04-24T09:26:43;9.30;99.90
22734;DHT22;11534;51.994;5.692;2023-04-24T09:29:17;9.40;99.90
22734;DHT22;11534;51.994;5.692;2023-04-24T09:31:44;9.50;99.90
22734;DHT22;11534;51.994;5.692;2023-04-24T09:34:10;9.50;99.90
22734;DHT22;11534;51.994;5.692;2023-04-24T09:36:38;9.50;99.90
22734;DHT22;11534;51.994;5.692;2023-04-24T09:39:05;9.50;99.90
22734;DHT22;11534;51.994;5.692;2023-04-24T09:41:33;9.60;99.90
22734;DHT22;11534;51.994;5.692;2023-04-24T09:44:19;9.60;99.90
22734;DHT22;11534;51.994;5.692;2023-04-24T09:46:51;9.50;99.90
22734;DHT22;11534;51.994;5.692;2023-04-24T09:49:27;9.50;99.90
22734;DHT22;11534;51.994;5.692;2023-04-24T09:52:07;9.50;99.90
22734;DHT22;11534;51.994;5.692;2023-04-24T09:54:33;9.50;99.90
22734;DHT22;11534;51.994;5.692;2023-04-24T09:56:59;9.60;99.90
22734;DHT22;11534;51.994;5.692;2023-04-24T09:59:28;9.70;99.90
22734;DHT22;11534;51.994;5.692;2023-04-24T10:01:56;9.70;99.90
22734;DHT22;11534;51.994;5.692;2023-04-24T10:04:26;9.80;99.90
22734;DHT22;11534;51.994;5.692;2023-04-24T10:06:54;10.00;99.90
22734;DHT22;11534;51.994;5.692;2023-04-24T10:09:22;10.10;99.90
22734;DHT22;11534;51.994;5.692;2023-04-24T10:11:53;10.20;99.90
22734;DHT22;11534;51.994;5.692;2023-04-24T10:14:21;10.30;99.90
22734;DHT22;11534;51.994;5.692;2023-04-24T10:16:48;10.50;99.90
22734;DHT22;11534;51.994;5.692;2023-04-24T10:19:14;10.80;99.90
22734;DHT22;11534;51.994;5.692;2023-04-24T10:21:41;10.90;99.90
22734;DHT22;11534;51.994;5.692;2023-04-24T10:24:15;11.00;99.90
22734;DHT22;11534;51.994;5.692;2023-04-24T10:26:42;11.00;99.90
22734;DHT22;11534;51.994;5.692;2023-04-24T10:29:10;10.90;99.90
22734;DHT22;11534;51.994;5.692;2023-04-24T10:31:38;10.90;99.90
22734;DHT22;11534;51.994;5.692;2023-04-24T10:34:07;10.80;99.90
22734;DHT22;11534;51.994;5.692;2023-04-24T10:36:34;10.80;99.90
22734;DHT22;11534;51.994;5.692;2023-04-24T10:39:02;10.70;99.90
22734;DHT22;11534;51.994;5.692;2023-04-24T10:41:30;10.70;99.90
22734;DHT22;11534;51.994;5.692;2023-04-24T10:44:09;10.70;99.90
22734;DHT22;11534;51.994;5.692;2023-04-24T10:46:38;10.80;99.90
22734;DHT22;11534;51.994;5.692;2023-04-24T10:49:06;10.80;99.90
22734;DHT22;11534;51.994;5.692;2023-04-24T10:51:52;10.80;99.90
22734;DHT22;11534;51.994;5.692;2023-04-24T10:54:27;10.60;99.90
22734;DHT22;11534;51.994;5.692;2023-04-24T10:56:53;10.40;99.90
22734;DHT22;11534;51.994;5.692;2023-04-24T10:59:38;10.20;99.90
22734;DHT22;11534;51.994;5.692;2023-04-24T11:02:07;10.10;99.90
22734;DHT22;11534;51.994;5.692;2023-04-24T11:04:34;10.10;99.90
22734;DHT22;11534;51.994;5.692;2023-04-24T11:07:02;10.40;99.90
22734;DHT22;11534;51.994;5.692;2023-04-24T11:09:29;10.60;99.90
22734;DHT22;11534;51.994;5.692;2023-04-24T11:12:07;10.80;99.90
22734;DHT22;11534;51.994;5.692;2023-04-24T11:20:17;10.90;99.90
22734;DHT22;11534;51.994;5.692;2023-04-24T11:22:43;11.10;99.90
22734;DHT22;11534;51.994;5.692;2023-04-24T11:25:09;11.10;99.90
22734;DHT22;11534;51.994;5.692;2023-04-24T11:27:44;11.30;99.90
22734;DHT22;11534;51.994;5.692;2023-04-24T11:30:18;11.30;99.90
22734;DHT22;11534;51.994;5.692;2023-04-24T11:32:47;11.50;99.90
22734;DHT22;11534;51.994;5.692;2023-04-24T11:35:18;11.70;99.90
22734;DHT22;11534;51.994;5.692;2023-04-24T11:37:46;11.80;99.90
22734;DHT22;11534;51.994;5.692;2023-04-24T11:40:14;11.80;99.90
22734;DHT22;11534;51.994;5.692;2023-04-24T11:42:47;11.60;99.90
22734;DHT22;11534;51.994;5.692;2023-04-24T11:45:15;11.40;99.90
22734;DHT22;11534;51.994;5.692;2023-04-24T11:47:45;11.20;99.90
22734;DHT22;11534;51.994;5.692;2023-04-24T11:50:15;11.10;99.90
22734;DHT22;11534;51.994;5.692;2023-04-24T11:52:43;10.90;99.90
22734;DHT22;11534;51.994;5.692;2023-04-24T11:57:49;10.50;99.90
22734;DHT22;11534;51.994;5.692;2023-04-24T12:00:17;10.40;99.90
22734;DHT22;11534;51.994;5.692;2023-04-24T12:02:44;10.30;99.90
22734;DHT22;11534;51.994;5.692;2023-04-24T12:05:22;10.30;99.90
22734;DHT22;11534;51.994;5.692;2023-04-24T12:07:48;10.20;99.90
22734;DHT22;11534;51.994;5.692;2023-04-24T12:10:20;10.20;99.90
22734;DHT22;11534;51.994;5.692;2023-04-24T12:12:46;10.20;99.90
22734;DHT22;11534;51.994;5.692;2023-04-24T12:15:12;10.10;99.90
22734;DHT22;11534;51.994;5.692;2023-04-24T12:17:41;10.20;99.90
22734;DHT22;11534;51.994;5.692;2023-04-24T12:20:08;10.40;99.90
22734;DHT22;11534;51.994;5.692;2023-04-24T12:22:50;10.60;99.90
22734;DHT22;11534;51.994;5.692;2023-04-24T12:25:19;10.70;99.90
22734;DHT22;11534;51.994;5.692;2023-04-24T12:27:51;10.90;99.90
22734;DHT22;11534;51.994;5.692;2023-04-24T12:30:19;11.00;99.90
22734;DHT22;11534;51.994;5.692;2023-04-24T12:32:46;11.20;99.90
22734;DHT22;11534;51.994;5.692;2023-04-24T12:35:13;11.20;99.90
22734;DHT22;11534;51.994;5.692;2023-04-24T12:37:41;11.20;99.90
22734;DHT22;11534;51.994;5.692;2023-04-24T12:40:12;11.20;99.90
22734;DHT22;11534;51.994;5.692;2023-04-24T12:42:53;11.20;99.90
22734;DHT22;11534;51.994;5.692;2023-04-24T12:45:19;11.10;99.90
22734;DHT22;11534;51.994;5.692;2023-04-24T12:47:45;11.00;99.90
22734;DHT22;11534;51.994;5.692;2023-04-24T12:50:13;11.00;99.90
22734;DHT22;11534;51.994;5.692;2023-04-24T12:52:40;11.00;99.90
22734;DHT22;11534;51.994;5.692;2023-04-24T12:55:06;11.10;99.90
22734;DHT22;11534;51.994;5.692;2023-04-24T12:57:37;11.20;99.90
22734;DHT22;11534;51.994;5.692;2023-04-24T13:00:03;11.20;99.90
22734;DHT22;11534;51.994;5.692;2023-04-24T13:02:31;11.10;99.90
22734;DHT22;11534;51.994;5.692;2023-04-24T13:04:58;11.20;99.90
22734;DHT22;11534;51.994;5.692;2023-04-24T13:07:23;11.20;99.90
22734;DHT22;11534;51.994;5.692;2023-04-24T13:09:54;11.30;99.90
22734;DHT22;11534;51.994;5.692;2023-04-24T13:12:20;11.20;99.90
22734;DHT22;11534;51.994;5.692;2023-04-24T13:14:46;11.20;99.90
22734;DHT22;11534;51.994;5.692;2023-04-24T13:17:12;11.10;99.90
22734;DHT22;11534;51.994;5.692;2023-04-24T13:19:42;11.10;99.90
22734;DHT22;11534;51.994;5.692;2023-04-24T13:22:12;11.00;99.90
22734;DHT22;11534;51.994;5.692;2023-04-24T13:24:38;11.00;99.90
22734;DHT22;11534;51.994;5.692;2023-04-24T13:27:06;11.00;99.90
22734;DHT22;11534;51.994;5.692;2023-04-24T13:29:31;11.10;99.90
22734;DHT22;11534;51.994;5.692;2023-04-24T13:31:57;11.20;99.90
22734;DHT22;11534;51.994;5.692;2023-04-24T13:34:23;11.10;99.90
22734;DHT22;11534;51.994;5.692;2023-04-24T13:36:51;11.10;99.90
22734;DHT22;11534;51.994;5.692;2023-04-24T13:39:17;11.10;99.90
22734;DHT22;11534;51.994;5.692;2023-04-24T13:41:43;11.10;99.90
22734;DHT22;11534;51.994;5.692;2023-04-24T13:44:09;11.10;99.90
22734;DHT22;11534;51.994;5.692;2023-04-24T13:46:35;11.00;99.90
22734;DHT22;11534;51.994;5.692;2023-04-24T13:49:02;11.30;99.90
22734;DHT22;11534;51.994;5.692;2023-04-24T13:51:29;11.70;99.90
22734;DHT22;11534;51.994;5.692;2023-04-24T13:53:55;12.40;99.90
22734;DHT22;11534;51.994;5.692;2023-04-24T13:56:21;13.00;99.90
22734;DHT22;11534;51.994;5.692;2023-04-24T13:58:47;13.20;99.90
22734;DHT22;11534;51.994;5.692;2023-04-24T14:01:14;12.90;99.90
22734;DHT22;11534;51.994;5.692;2023-04-24T14:03:41;12.60;99.90
22734;DHT22;11534;51.994;5.692;2023-04-24T14:06:08;12.40;99.90
22734;DHT22;11534;51.994;5.692;2023-04-24T14:08:34;12.20;99.90
22734;DHT22;11534;51.994;5.692;2023-04-24T14:10:59;12.20;99.90
22734;DHT22;11534;51.994;5.692;2023-04-24T14:13:25;12.50;99.90
22734;DHT22;11534;51.994;5.692;2023-04-24T14:15:51;13.10;99.90
22734;DHT22;11534;51.994;5.692;2023-04-24T14:18:18;13.80;99.90
22734;DHT22;11534;51.994;5.692;2023-04-24T14:20:44;14.10;99.90
22734;DHT22;11534;51.994;5.692;2023-04-24T14:23:09;14.10;99.90
22734;DHT22;11534;51.994;5.692;2023-04-24T14:25:35;14.00;99.90
22734;DHT22;11534;51.994;5.692;2023-04-24T14:28:01;13.70;99.90
22734;DHT22;11534;51.994;5.692;2023-04-24T14:30:26;13.30;99.90
22734;DHT22;11534;51.994;5.692;2023-04-24T14:32:52;13.00;99.90
22734;DHT22;11534;51.994;5.692;2023-04-24T14:35:18;12.80;99.90
22734;DHT22;11534;51.994;5.692;2023-04-24T14:37:44;12.70;99.90
22734;DHT22;11534;51.994;5.692;2023-04-24T14:40:10;12.70;99.90
22734;DHT22;11534;51.994;5.692;2023-04-24T14:42:36;12.80;99.90
22734;DHT22;11534;51.994;5.692;2023-04-24T14:45:02;12.60;99.90
22734;DHT22;11534;51.994;5.692;2023-04-24T14:47:28;12.40;99.90
22734;DHT22;11534;51.994;5.692;2023-04-24T14:49:54;12.20;99.90
22734;DHT22;11534;51.994;5.692;2023-04-24T14:52:20;12.10;99.90
22734;DHT22;11534;51.994;5.692;2023-04-24T14:54:46;12.00;99.90
22734;DHT22;11534;51.994;5.692;2023-04-24T14:57:11;12.00;99.90
22734;DHT22;11534;51.994;5.692;2023-04-24T14:59:37;11.80;99.90
22734;DHT22;11534;51.994;5.692;2023-04-24T15:02:04;11.70;99.90
22734;DHT22;11534;51.994;5.692;2023-04-24T15:04:29;11.60;99.90
22734;DHT22;11534;51.994;5.692;2023-04-24T15:06:56;11.50;99.90
22734;DHT22;11534;51.994;5.692;2023-04-24T15:09:23;11.50;99.90
22734;DHT22;11534;51.994;5.692;2023-04-24T15:11:49;11.40;99.90
22734;DHT22;11534;51.994;5.692;2023-04-24T15:14:16;11.40;99.90
22734;DHT22;11534;51.994;5.692;2023-04-24T15:16:42;11.30;99.90
22734;DHT22;11534;51.994;5.692;2023-04-24T15:19:08;11.20;99.90
22734;DHT22;11534;51.994;5.692;2023-04-24T15:21:35;11.20;99.90
22734;DHT22;11534;51.994;5.692;2023-04-24T15:24:01;11.20;99.90
22734;DHT22;11534;51.994;5.692;2023-04-24T15:26:26;11.20;99.90
22734;DHT22;11534;51.994;5.692;2023-04-24T15:28:52;11.20;99.90
22734;DHT22;11534;51.994;5.692;2023-04-24T15:31:18;11.30;99.90
22734;DHT22;11534;51.994;5.692;2023-04-24T15:33:44;11.30;99.90
22734;DHT22;11534;51.994;5.692;2023-04-24T15:36:10;11.40;99.90
22734;DHT22;11534;51.994;5.692;2023-04-24T15:38:37;11.40;99.90
22734;DHT22;11534;51.994;5.692;2023-04-24T15:41:02;11.40;99.90
22734;DHT22;11534;51.994;5.692;2023-04-24T15:43:28;11.50;99.90